sensor_id;sensor_type;location;lat;lon;timestamp;P1;durP1;ratioP1;P2;durP2;ratioP2
42742;SDS011;28397;44.552;-0.848;2022-12-07T00:03:36;14.60;;;12.30;;
42742;SDS011;28397;44.552;-0.848;2022-12-07T00:06:03;13.82;;;12.43;;
42742;SDS011;28397;44.552;-0.848;2022-12-07T00:08:31;13.27;;;11.88;;
42742;SDS011;28397;44.552;-0.848;2022-12-07T00:11:01;16.35;;;14.85;;
42742;SDS011;28397;44.552;-0.848;2022-12-07T00:13:32;13.73;;;12.43;;
42742;SDS011;28397;44.552;-0.848;2022-12-07T00:16:02;14.35;;;12.85;;
42742;SDS011;28397;44.552;-0.848;2022-12-07T00:18:33;14.10;;;12.75;;
42742;SDS011;28397;44.552;-0.848;2022-12-07T00:21:03;14.35;;;13.05;;
42742;SDS011;28397;44.552;-0.848;2022-12-07T00:23:30;14.35;;;12.88;;
42742;SDS011;28397;44.552;-0.848;2022-12-07T00:26:02;14.73;;;12.85;;
42742;SDS011;28397;44.552;-0.848;2022-12-07T00:28:31;17.45;;;15.68;;
42742;SDS011;28397;44.552;-0.848;2022-12-07T00:31:08;14.60;;;13.18;;
42742;SDS011;28397;44.552;-0.848;2022-12-07T00:33:35;14.32;;;12.88;;
42742;SDS011;28397;44.552;-0.848;2022-12-07T00:36:03;15.85;;;14.15;;
42742;SDS011;28397;44.552;-0.848;2022-12-07T00:38:34;13.98;;;12.57;;
42742;SDS011;28397;44.552;-0.848;2022-12-07T00:41:02;13.88;;;12.63;;
42742;SDS011;28397;44.552;-0.848;2022-12-07T00:43:30;14.65;;;12.38;;
42742;SDS011;28397;44.552;-0.848;2022-12-07T00:45:56;13.75;;;12.40;;
42742;SDS011;28397;44.552;-0.848;2022-12-07T00:48:22;14.55;;;13.15;;
42742;SDS011;28397;44.552;-0.848;2022-12-07T00:50:48;14.68;;;13.18;;
42742;SDS011;28397;44.552;-0.848;2022-12-07T00:53:14;14.27;;;12.88;;
42742;SDS011;28397;44.552;-0.848;2022-12-07T00:55:40;13.52;;;12.23;;
42742;SDS011;28397;44.552;-0.848;2022-12-07T00:58:06;13.95;;;12.50;;
42742;SDS011;28397;44.552;-0.848;2022-12-07T01:00:32;14.52;;;13.13;;
42742;SDS011;28397;44.552;-0.848;2022-12-07T01:02:59;13.52;;;12.20;;
42742;SDS011;28397;44.552;-0.848;2022-12-07T01:05:25;14.85;;;13.20;;
42742;SDS011;28397;44.552;-0.848;2022-12-07T01:07:51;14.00;;;12.70;;
42742;SDS011;28397;44.552;-0.848;2022-12-07T01:10:16;14.75;;;13.25;;
42742;SDS011;28397;44.552;-0.848;2022-12-07T01:12:42;14.50;;;13.13;;
42742;SDS011;28397;44.552;-0.848;2022-12-07T01:15:08;14.18;;;12.80;;
42742;SDS011;28397;44.552;-0.848;2022-12-07T01:17:34;15.68;;;13.50;;
42742;SDS011;28397;44.552;-0.848;2022-12-07T01:20:00;14.43;;;12.95;;
42742;SDS011;28397;44.552;-0.848;2022-12-07T01:22:26;14.57;;;13.05;;
42742;SDS011;28397;44.552;-0.848;2022-12-07T01:24:52;14.20;;;12.80;;
42742;SDS011;28397;44.552;-0.848;2022-12-07T01:27:18;14.85;;;13.35;;
42742;SDS011;28397;44.552;-0.848;2022-12-07T01:29:44;14.63;;;13.13;;
42742;SDS011;28397;44.552;-0.848;2022-12-07T01:32:10;15.70;;;13.80;;
42742;SDS011;28397;44.552;-0.848;2022-12-07T01:34:35;19.23;;;16.90;;
42742;SDS011;28397;44.552;-0.848;2022-12-07T01:37:01;16.13;;;14.63;;
42742;SDS011;28397;44.552;-0.848;2022-12-07T01:39:27;15.82;;;14.23;;
42742;SDS011;28397;44.552;-0.848;2022-12-07T01:41:53;44.38;;;37.55;;
42742;SDS011;28397;44.552;-0.848;2022-12-07T01:44:20;50.53;;;42.47;;
42742;SDS011;28397;44.552;-0.848;2022-12-07T01:46:53;22.38;;;20.08;;
42742;SDS011;28397;44.552;-0.848;2022-12-07T01:49:36;20.90;;;16.65;;
42742;SDS011;28397;44.552;-0.848;2022-12-07T01:55:00;38.97;;;34.97;;
42742;SDS011;28397;44.552;-0.848;2022-12-07T01:57:30;25.70;;;23.08;;
42742;SDS011;28397;44.552;-0.848;2022-12-07T01:59:58;24.00;;;21.50;;
42742;SDS011;28397;44.552;-0.848;2022-12-07T02:02:34;15.73;;;13.98;;
42742;SDS011;28397;44.552;-0.848;2022-12-07T02:05:27;16.10;;;14.00;;
42742;SDS011;28397;44.552;-0.848;2022-12-07T02:07:55;15.40;;;13.93;;
42742;SDS011;28397;44.552;-0.848;2022-12-07T02:10:22;24.65;;;20.80;;
42742;SDS011;28397;44.552;-0.848;2022-12-07T02:12:51;26.23;;;23.20;;
42742;SDS011;28397;44.552;-0.848;2022-12-07T02:15:34;17.10;;;15.50;;
42742;SDS011;28397;44.552;-0.848;2022-12-07T02:18:25;32.13;;;28.85;;
42742;SDS011;28397;44.552;-0.848;2022-12-07T02:23:59;26.95;;;24.05;;
42742;SDS011;28397;44.552;-0.848;2022-12-07T02:29:10;24.23;;;21.77;;
42742;SDS011;28397;44.552;-0.848;2022-12-07T02:31:37;22.85;;;20.65;;
42742;SDS011;28397;44.552;-0.848;2022-12-07T02:34:11;18.35;;;16.52;;
42742;SDS011;28397;44.552;-0.848;2022-12-07T02:36:46;16.48;;;14.98;;
42742;SDS011;28397;44.552;-0.848;2022-12-07T02:39:24;17.48;;;15.82;;
42742;SDS011;28397;44.552;-0.848;2022-12-07T02:41:55;16.95;;;15.35;;
42742;SDS011;28397;44.552;-0.848;2022-12-07T02:44:27;17.80;;;15.98;;
42742;SDS011;28397;44.552;-0.848;2022-12-07T02:47:02;16.33;;;14.65;;
42742;SDS011;28397;44.552;-0.848;2022-12-07T02:49:32;15.68;;;14.18;;
42742;SDS011;28397;44.552;-0.848;2022-12-07T02:51:58;16.65;;;14.93;;
42742;SDS011;28397;44.552;-0.848;2022-12-07T02:54:23;16.55;;;15.00;;
42742;SDS011;28397;44.552;-0.848;2022-12-07T02:56:50;22.98;;;20.80;;
42742;SDS011;28397;44.552;-0.848;2022-12-07T02:59:48;17.63;;;15.85;;
42742;SDS011;28397;44.552;-0.848;2022-12-07T03:16:08;18.60;;;16.70;;
42742;SDS011;28397;44.552;-0.848;2022-12-07T03:18:32;18.00;;;16.30;;
42742;SDS011;28397;44.552;-0.848;2022-12-07T03:21:24;18.75;;;16.92;;
42742;SDS011;28397;44.552;-0.848;2022-12-07T03:23:55;19.13;;;17.23;;
42742;SDS011;28397;44.552;-0.848;2022-12-07T03:26:24;18.98;;;17.00;;
42742;SDS011;28397;44.552;-0.848;2022-12-07T03:28:58;19.50;;;17.55;;
42742;SDS011;28397;44.552;-0.848;2022-12-07T03:31:32;18.95;;;17.15;;
42742;SDS011;28397;44.552;-0.848;2022-12-07T03:34:17;18.92;;;17.13;;
42742;SDS011;28397;44.552;-0.848;2022-12-07T03:37:22;19.65;;;17.70;;
42742;SDS011;28397;44.552;-0.848;2022-12-07T03:40:00;20.10;;;18.05;;
42742;SDS011;28397;44.552;-0.848;2022-12-07T03:42:40;18.85;;;17.05;;
42742;SDS011;28397;44.552;-0.848;2022-12-07T03:45:06;20.05;;;18.05;;
42742;SDS011;28397;44.552;-0.848;2022-12-07T03:47:46;20.30;;;18.20;;
42742;SDS011;28397;44.552;-0.848;2022-12-07T03:50:28;20.35;;;18.30;;
42742;SDS011;28397;44.552;-0.848;2022-12-07T03:53:12;20.35;;;18.40;;
42742;SDS011;28397;44.552;-0.848;2022-12-07T03:55:43;20.33;;;18.45;;
42742;SDS011;28397;44.552;-0.848;2022-12-07T03:58:12;20.77;;;18.85;;
42742;SDS011;28397;44.552;-0.848;2022-12-07T04:00:44;22.08;;;19.92;;
42742;SDS011;28397;44.552;-0.848;2022-12-07T04:03:10;22.65;;;20.55;;
42742;SDS011;28397;44.552;-0.848;2022-12-07T04:05:36;22.48;;;20.40;;
42742;SDS011;28397;44.552;-0.848;2022-12-07T04:08:03;23.42;;;21.20;;
42742;SDS011;28397;44.552;-0.848;2022-12-07T04:10:29;25.15;;;22.65;;
42742;SDS011;28397;44.552;-0.848;2022-12-07T04:12:55;23.70;;;21.30;;
42742;SDS011;28397;44.552;-0.848;2022-12-07T04:15:21;24.63;;;22.23;;
42742;SDS011;28397;44.552;-0.848;2022-12-07T04:17:47;25.38;;;22.95;;
42742;SDS011;28397;44.552;-0.848;2022-12-07T04:20:13;26.52;;;23.83;;
42742;SDS011;28397;44.552;-0.848;2022-12-07T04:22:39;25.27;;;22.60;;
42742;SDS011;28397;44.552;-0.848;2022-12-07T04:25:05;26.92;;;24.33;;
42742;SDS011;28397;44.552;-0.848;2022-12-07T04:27:31;27.17;;;24.45;;
42742;SDS011;28397;44.552;-0.848;2022-12-07T04:29:56;25.75;;;23.05;;
42742;SDS011;28397;44.552;-0.848;2022-12-07T04:32:22;26.05;;;23.35;;
42742;SDS011;28397;44.552;-0.848;2022-12-07T04:34:48;27.98;;;25.08;;
42742;SDS011;28397;44.552;-0.848;2022-12-07T04:37:14;27.20;;;24.42;;
42742;SDS011;28397;44.552;-0.848;2022-12-07T04:39:40;33.00;;;29.70;;
42742;SDS011;28397;44.552;-0.848;2022-12-07T04:42:06;29.77;;;26.77;;
42742;SDS011;28397;44.552;-0.848;2022-12-07T04:44:32;30.60;;;27.23;;
42742;SDS011;28397;44.552;-0.848;2022-12-07T04:47:00;30.30;;;27.20;;
42742;SDS011;28397;44.552;-0.848;2022-12-07T04:49:26;38.08;;;33.60;;
42742;SDS011;28397;44.552;-0.848;2022-12-07T04:51:51;33.92;;;30.52;;
42742;SDS011;28397;44.552;-0.848;2022-12-07T04:54:17;36.10;;;32.20;;
42742;SDS011;28397;44.552;-0.848;2022-12-07T04:56:43;32.65;;;29.42;;
42742;SDS011;28397;44.552;-0.848;2022-12-07T04:59:10;33.13;;;29.17;;
42742;SDS011;28397;44.552;-0.848;2022-12-07T05:01:37;37.17;;;32.70;;
42742;SDS011;28397;44.552;-0.848;2022-12-07T05:04:03;35.10;;;31.30;;
42742;SDS011;28397;44.552;-0.848;2022-12-07T05:06:29;35.53;;;31.80;;
42742;SDS011;28397;44.552;-0.848;2022-12-07T05:08:54;34.33;;;30.63;;
42742;SDS011;28397;44.552;-0.848;2022-12-07T05:11:20;35.38;;;31.42;;
42742;SDS011;28397;44.552;-0.848;2022-12-07T05:14:08;53.58;;;31.80;;
42742;SDS011;28397;44.552;-0.848;2022-12-07T05:16:36;67.03;;;33.38;;
42742;SDS011;28397;44.552;-0.848;2022-12-07T05:19:02;41.95;;;31.88;;
42742;SDS011;28397;44.552;-0.848;2022-12-07T05:21:29;41.42;;;36.17;;
42742;SDS011;28397;44.552;-0.848;2022-12-07T05:23:55;64.40;;;40.25;;
42742;SDS011;28397;44.552;-0.848;2022-12-07T05:26:21;66.53;;;38.35;;
42742;SDS011;28397;44.552;-0.848;2022-12-07T05:28:50;78.82;;;40.17;;
42742;SDS011;28397;44.552;-0.848;2022-12-07T05:31:20;51.30;;;36.38;;
42742;SDS011;28397;44.552;-0.848;2022-12-07T05:33:46;43.72;;;35.67;;
42742;SDS011;28397;44.552;-0.848;2022-12-07T05:36:12;44.67;;;36.20;;
42742;SDS011;28397;44.552;-0.848;2022-12-07T05:38:38;47.50;;;40.17;;
42742;SDS011;28397;44.552;-0.848;2022-12-07T05:41:04;54.90;;;36.35;;
42742;SDS011;28397;44.552;-0.848;2022-12-07T05:43:32;47.15;;;38.35;;
42742;SDS011;28397;44.552;-0.848;2022-12-07T05:45:58;45.50;;;37.67;;
42742;SDS011;28397;44.552;-0.848;2022-12-07T05:48:24;45.50;;;35.22;;
42742;SDS011;28397;44.552;-0.848;2022-12-07T05:50:50;53.17;;;35.33;;
42742;SDS011;28397;44.552;-0.848;2022-12-07T05:53:16;57.78;;;39.40;;
42742;SDS011;28397;44.552;-0.848;2022-12-07T05:55:42;50.40;;;37.80;;
42742;SDS011;28397;44.552;-0.848;2022-12-07T05:58:08;42.38;;;34.95;;
42742;SDS011;28397;44.552;-0.848;2022-12-07T06:00:56;41.03;;;36.08;;
42742;SDS011;28397;44.552;-0.848;2022-12-07T06:03:22;38.15;;;33.92;;
42742;SDS011;28397;44.552;-0.848;2022-12-07T06:05:48;36.78;;;32.47;;
42742;SDS011;28397;44.552;-0.848;2022-12-07T06:08:13;33.65;;;30.15;;
42742;SDS011;28397;44.552;-0.848;2022-12-07T06:10:40;34.42;;;30.73;;
42742;SDS011;28397;44.552;-0.848;2022-12-07T06:13:07;37.45;;;33.55;;
42742;SDS011;28397;44.552;-0.848;2022-12-07T06:15:37;42.38;;;37.72;;
42742;SDS011;28397;44.552;-0.848;2022-12-07T06:18:03;32.88;;;29.45;;
42742;SDS011;28397;44.552;-0.848;2022-12-07T06:20:29;30.52;;;27.52;;
42742;SDS011;28397;44.552;-0.848;2022-12-07T06:22:54;33.33;;;29.98;;
42742;SDS011;28397;44.552;-0.848;2022-12-07T06:25:20;31.25;;;28.05;;
42742;SDS011;28397;44.552;-0.848;2022-12-07T06:27:46;31.05;;;28.13;;
42742;SDS011;28397;44.552;-0.848;2022-12-07T06:30:11;30.48;;;27.42;;
42742;SDS011;28397;44.552;-0.848;2022-12-07T06:32:37;29.23;;;26.23;;
42742;SDS011;28397;44.552;-0.848;2022-12-07T06:35:03;30.67;;;27.55;;
42742;SDS011;28397;44.552;-0.848;2022-12-07T06:37:29;31.95;;;28.88;;
42742;SDS011;28397;44.552;-0.848;2022-12-07T06:39:55;30.45;;;27.45;;
42742;SDS011;28397;44.552;-0.848;2022-12-07T06:42:21;29.50;;;26.50;;
42742;SDS011;28397;44.552;-0.848;2022-12-07T06:44:47;31.13;;;28.10;;
42742;SDS011;28397;44.552;-0.848;2022-12-07T06:47:13;30.70;;;27.60;;
42742;SDS011;28397;44.552;-0.848;2022-12-07T06:49:38;33.75;;;30.23;;
42742;SDS011;28397;44.552;-0.848;2022-12-07T06:52:04;29.88;;;26.98;;
42742;SDS011;28397;44.552;-0.848;2022-12-07T06:54:30;32.90;;;29.70;;
42742;SDS011;28397;44.552;-0.848;2022-12-07T06:56:56;31.13;;;27.67;;
42742;SDS011;28397;44.552;-0.848;2022-12-07T06:59:22;31.23;;;28.02;;
42742;SDS011;28397;44.552;-0.848;2022-12-07T07:01:48;31.48;;;28.30;;
42742;SDS011;28397;44.552;-0.848;2022-12-07T07:04:13;28.45;;;25.70;;
42742;SDS011;28397;44.552;-0.848;2022-12-07T07:06:39;30.45;;;27.33;;
42742;SDS011;28397;44.552;-0.848;2022-12-07T07:09:05;30.98;;;27.77;;
42742;SDS011;28397;44.552;-0.848;2022-12-07T07:11:31;30.08;;;27.02;;
42742;SDS011;28397;44.552;-0.848;2022-12-07T07:13:56;32.20;;;28.98;;
42742;SDS011;28397;44.552;-0.848;2022-12-07T07:16:27;30.63;;;27.52;;
42742;SDS011;28397;44.552;-0.848;2022-12-07T07:18:54;31.73;;;28.35;;
42742;SDS011;28397;44.552;-0.848;2022-12-07T07:21:19;30.48;;;27.40;;
42742;SDS011;28397;44.552;-0.848;2022-12-07T07:23:45;31.30;;;28.13;;
42742;SDS011;28397;44.552;-0.848;2022-12-07T07:26:11;29.42;;;26.52;;
42742;SDS011;28397;44.552;-0.848;2022-12-07T07:28:37;30.23;;;27.13;;
42742;SDS011;28397;44.552;-0.848;2022-12-07T07:31:03;32.97;;;29.63;;
42742;SDS011;28397;44.552;-0.848;2022-12-07T07:33:28;29.83;;;26.83;;
42742;SDS011;28397;44.552;-0.848;2022-12-07T07:35:54;30.15;;;27.15;;
42742;SDS011;28397;44.552;-0.848;2022-12-07T07:38:20;28.77;;;25.90;;
42742;SDS011;28397;44.552;-0.848;2022-12-07T07:40:45;27.95;;;25.20;;
42742;SDS011;28397;44.552;-0.848;2022-12-07T07:43:11;29.88;;;26.98;;
42742;SDS011;28397;44.552;-0.848;2022-12-07T07:45:37;27.83;;;24.95;;
42742;SDS011;28397;44.552;-0.848;2022-12-07T07:48:03;28.88;;;26.00;;
42742;SDS011;28397;44.552;-0.848;2022-12-07T07:50:29;29.30;;;26.40;;
42742;SDS011;28397;44.552;-0.848;2022-12-07T07:52:56;30.13;;;26.90;;
42742;SDS011;28397;44.552;-0.848;2022-12-07T07:55:22;29.67;;;26.75;;
42742;SDS011;28397;44.552;-0.848;2022-12-07T07:57:48;30.10;;;27.00;;
42742;SDS011;28397;44.552;-0.848;2022-12-07T08:00:14;29.23;;;26.35;;
42742;SDS011;28397;44.552;-0.848;2022-12-07T08:02:41;29.80;;;26.88;;
42742;SDS011;28397;44.552;-0.848;2022-12-07T08:05:11;28.98;;;25.92;;
42742;SDS011;28397;44.552;-0.848;2022-12-07T08:07:37;30.58;;;27.38;;
42742;SDS011;28397;44.552;-0.848;2022-12-07T08:10:03;30.40;;;27.27;;
42742;SDS011;28397;44.552;-0.848;2022-12-07T08:12:29;30.08;;;26.98;;
42742;SDS011;28397;44.552;-0.848;2022-12-07T08:14:55;31.77;;;28.48;;
42742;SDS011;28397;44.552;-0.848;2022-12-07T08:17:21;32.10;;;28.80;;
42742;SDS011;28397;44.552;-0.848;2022-12-07T08:19:46;32.70;;;27.60;;
42742;SDS011;28397;44.552;-0.848;2022-12-07T08:22:12;31.20;;;28.02;;
42742;SDS011;28397;44.552;-0.848;2022-12-07T08:24:38;31.42;;;28.23;;
42742;SDS011;28397;44.552;-0.848;2022-12-07T08:27:04;31.40;;;28.20;;
42742;SDS011;28397;44.552;-0.848;2022-12-07T08:29:29;31.17;;;27.92;;
42742;SDS011;28397;44.552;-0.848;2022-12-07T08:31:55;34.33;;;29.15;;
42742;SDS011;28397;44.552;-0.848;2022-12-07T08:34:21;30.95;;;27.75;;
42742;SDS011;28397;44.552;-0.848;2022-12-07T08:36:47;30.90;;;27.80;;
42742;SDS011;28397;44.552;-0.848;2022-12-07T08:39:12;31.52;;;28.23;;
42742;SDS011;28397;44.552;-0.848;2022-12-07T08:41:38;31.90;;;28.67;;
42742;SDS011;28397;44.552;-0.848;2022-12-07T08:44:04;32.85;;;29.45;;
42742;SDS011;28397;44.552;-0.848;2022-12-07T08:46:46;31.98;;;28.67;;
42742;SDS011;28397;44.552;-0.848;2022-12-07T08:49:39;31.13;;;27.85;;
42742;SDS011;28397;44.552;-0.848;2022-12-07T08:52:10;29.67;;;26.75;;
42742;SDS011;28397;44.552;-0.848;2022-12-07T08:54:36;31.38;;;28.08;;
42742;SDS011;28397;44.552;-0.848;2022-12-07T08:57:05;31.25;;;27.95;;
42742;SDS011;28397;44.552;-0.848;2022-12-07T08:59:32;30.73;;;27.65;;
42742;SDS011;28397;44.552;-0.848;2022-12-07T09:02:00;29.08;;;26.02;;
42742;SDS011;28397;44.552;-0.848;2022-12-07T09:04:25;27.30;;;24.42;;
42742;SDS011;28397;44.552;-0.848;2022-12-07T09:06:51;27.23;;;24.42;;
42742;SDS011;28397;44.552;-0.848;2022-12-07T09:09:18;28.98;;;25.88;;
42742;SDS011;28397;44.552;-0.848;2022-12-07T09:11:44;28.77;;;25.95;;
42742;SDS011;28397;44.552;-0.848;2022-12-07T09:14:10;27.23;;;24.52;;
42742;SDS011;28397;44.552;-0.848;2022-12-07T09:16:37;26.98;;;24.23;;
42742;SDS011;28397;44.552;-0.848;2022-12-07T09:19:03;26.13;;;23.52;;
42742;SDS011;28397;44.552;-0.848;2022-12-07T09:21:29;25.67;;;23.00;;
42742;SDS011;28397;44.552;-0.848;2022-12-07T09:23:55;26.98;;;24.23;;
42742;SDS011;28397;44.552;-0.848;2022-12-07T09:26:21;25.27;;;22.88;;
42742;SDS011;28397;44.552;-0.848;2022-12-07T09:28:47;25.45;;;22.92;;
42742;SDS011;28397;44.552;-0.848;2022-12-07T09:31:13;25.58;;;23.05;;
42742;SDS011;28397;44.552;-0.848;2022-12-07T09:33:38;25.30;;;22.58;;
42742;SDS011;28397;44.552;-0.848;2022-12-07T09:36:04;25.25;;;22.65;;
42742;SDS011;28397;44.552;-0.848;2022-12-07T09:38:30;25.13;;;22.52;;
42742;SDS011;28397;44.552;-0.848;2022-12-07T09:40:57;25.98;;;23.27;;
42742;SDS011;28397;44.552;-0.848;2022-12-07T09:43:33;25.73;;;23.10;;
42742;SDS011;28397;44.552;-0.848;2022-12-07T09:46:01;25.15;;;22.58;;
42742;SDS011;28397;44.552;-0.848;2022-12-07T09:48:31;24.55;;;21.73;;
42742;SDS011;28397;44.552;-0.848;2022-12-07T09:51:01;24.08;;;21.60;;
42742;SDS011;28397;44.552;-0.848;2022-12-07T09:53:30;24.75;;;22.25;;
42742;SDS011;28397;44.552;-0.848;2022-12-07T09:55:58;23.83;;;21.42;;
42742;SDS011;28397;44.552;-0.848;2022-12-07T09:58:26;23.23;;;20.92;;
42742;SDS011;28397;44.552;-0.848;2022-12-07T10:00:58;24.27;;;21.70;;
42742;SDS011;28397;44.552;-0.848;2022-12-07T10:03:27;24.03;;;20.93;;
42742;SDS011;28397;44.552;-0.848;2022-12-07T10:05:54;24.67;;;22.17;;
42742;SDS011;28397;44.552;-0.848;2022-12-07T10:08:21;23.30;;;20.90;;
42742;SDS011;28397;44.552;-0.848;2022-12-07T10:10:49;22.60;;;20.30;;
42742;SDS011;28397;44.552;-0.848;2022-12-07T10:13:44;21.88;;;19.63;;
42742;SDS011;28397;44.552;-0.848;2022-12-07T10:16:37;22.67;;;20.40;;
42742;SDS011;28397;44.552;-0.848;2022-12-07T10:19:37;21.77;;;19.63;;
42742;SDS011;28397;44.552;-0.848;2022-12-07T10:22:11;22.60;;;20.13;;
42742;SDS011;28397;44.552;-0.848;2022-12-07T10:24:43;21.42;;;19.33;;
42742;SDS011;28397;44.552;-0.848;2022-12-07T10:27:19;20.83;;;18.83;;
42742;SDS011;28397;44.552;-0.848;2022-12-07T10:29:55;21.38;;;19.23;;
42742;SDS011;28397;44.552;-0.848;2022-12-07T10:32:28;20.27;;;18.00;;
42742;SDS011;28397;44.552;-0.848;2022-12-07T10:37:42;19.90;;;17.88;;
42742;SDS011;28397;44.552;-0.848;2022-12-07T10:45:35;20.35;;;17.10;;
42742;SDS011;28397;44.552;-0.848;2022-12-07T10:48:34;18.60;;;16.83;;
42742;SDS011;28397;44.552;-0.848;2022-12-07T10:56:57;19.40;;;17.40;;
42742;SDS011;28397;44.552;-0.848;2022-12-07T10:59:42;21.42;;;19.25;;
42742;SDS011;28397;44.552;-0.848;2022-12-07T11:19:42;18.52;;;16.67;;
42742;SDS011;28397;44.552;-0.848;2022-12-07T11:32:53;18.75;;;16.85;;
42742;SDS011;28397;44.552;-0.848;2022-12-07T11:35:44;19.25;;;17.25;;
42742;SDS011;28397;44.552;-0.848;2022-12-07T11:38:17;17.38;;;15.68;;
42742;SDS011;28397;44.552;-0.848;2022-12-07T11:40:49;17.73;;;16.02;;
42742;SDS011;28397;44.552;-0.848;2022-12-07T11:43:26;18.58;;;16.70;;
42742;SDS011;28397;44.552;-0.848;2022-12-07T11:46:05;17.33;;;15.70;;
42742;SDS011;28397;44.552;-0.848;2022-12-07T11:48:46;15.10;;;13.60;;
42742;SDS011;28397;44.552;-0.848;2022-12-07T11:51:16;16.35;;;14.75;;
42742;SDS011;28397;44.552;-0.848;2022-12-07T11:56:22;16.15;;;14.55;;
42742;SDS011;28397;44.552;-0.848;2022-12-07T11:59:36;14.38;;;12.98;;
42742;SDS011;28397;44.552;-0.848;2022-12-07T12:04:29;14.40;;;12.85;;
42742;SDS011;28397;44.552;-0.848;2022-12-07T12:07:07;14.50;;;13.10;;
42742;SDS011;28397;44.552;-0.848;2022-12-07T12:09:39;14.52;;;13.02;;
42742;SDS011;28397;44.552;-0.848;2022-12-07T12:26:23;12.75;;;11.55;;
42742;SDS011;28397;44.552;-0.848;2022-12-07T12:33:59;13.55;;;12.15;;
42742;SDS011;28397;44.552;-0.848;2022-12-07T12:46:50;13.35;;;11.95;;
42742;SDS011;28397;44.552;-0.848;2022-12-07T12:51:49;12.50;;;11.30;;
42742;SDS011;28397;44.552;-0.848;2022-12-07T12:54:26;12.90;;;11.55;;
42742;SDS011;28397;44.552;-0.848;2022-12-07T13:02:27;12.20;;;10.90;;
42742;SDS011;28397;44.552;-0.848;2022-12-07T13:07:49;12.23;;;11.02;;
42742;SDS011;28397;44.552;-0.848;2022-12-07T13:16:36;12.70;;;11.40;;
42742;SDS011;28397;44.552;-0.848;2022-12-07T13:18:41;13.48;;;11.32;;
42742;SDS011;28397;44.552;-0.848;2022-12-07T13:23:51;12.40;;;10.95;;
42742;SDS011;28397;44.552;-0.848;2022-12-07T13:29:14;11.50;;;10.38;;
42742;SDS011;28397;44.552;-0.848;2022-12-07T13:31:51;12.48;;;11.27;;
42742;SDS011;28397;44.552;-0.848;2022-12-07T13:37:14;11.65;;;10.45;;
42742;SDS011;28397;44.552;-0.848;2022-12-07T13:39:47;12.43;;;11.13;;
42742;SDS011;28397;44.552;-0.848;2022-12-07T13:42:20;12.02;;;10.90;;
42742;SDS011;28397;44.552;-0.848;2022-12-07T13:44:47;11.88;;;10.68;;
42742;SDS011;28397;44.552;-0.848;2022-12-07T13:47:16;11.25;;;10.20;;
42742;SDS011;28397;44.552;-0.848;2022-12-07T13:50:00;12.50;;;11.05;;
42742;SDS011;28397;44.552;-0.848;2022-12-07T13:52:27;10.80;;;9.70;;
42742;SDS011;28397;44.552;-0.848;2022-12-07T13:54:59;11.00;;;10.00;;
42742;SDS011;28397;44.552;-0.848;2022-12-07T13:57:31;10.40;;;9.40;;
42742;SDS011;28397;44.552;-0.848;2022-12-07T14:00:00;10.98;;;9.88;;
42742;SDS011;28397;44.552;-0.848;2022-12-07T14:02:28;10.25;;;9.30;;
42742;SDS011;28397;44.552;-0.848;2022-12-07T14:16:18;10.18;;;9.15;;
42742;SDS011;28397;44.552;-0.848;2022-12-07T14:18:48;10.68;;;9.68;;
42742;SDS011;28397;44.552;-0.848;2022-12-07T14:21:14;10.48;;;9.48;;
42742;SDS011;28397;44.552;-0.848;2022-12-07T14:23:43;10.32;;;9.30;;
42742;SDS011;28397;44.552;-0.848;2022-12-07T14:28:38;10.95;;;9.95;;
42742;SDS011;28397;44.552;-0.848;2022-12-07T14:31:38;10.63;;;9.57;;
42742;SDS011;28397;44.552;-0.848;2022-12-07T14:34:00;11.30;;;10.05;;
42742;SDS011;28397;44.552;-0.848;2022-12-07T14:36:25;10.73;;;9.63;;
42742;SDS011;28397;44.552;-0.848;2022-12-07T14:38:51;10.52;;;9.52;;
42742;SDS011;28397;44.552;-0.848;2022-12-07T14:41:19;10.10;;;9.10;;
42742;SDS011;28397;44.552;-0.848;2022-12-07T14:44:10;10.82;;;9.00;;
42742;SDS011;28397;44.552;-0.848;2022-12-07T14:46:37;10.63;;;9.57;;
42742;SDS011;28397;44.552;-0.848;2022-12-07T14:49:02;11.13;;;10.02;;
42742;SDS011;28397;44.552;-0.848;2022-12-07T14:51:28;9.38;;;8.48;;
42742;SDS011;28397;44.552;-0.848;2022-12-07T14:53:54;10.15;;;9.18;;
42742;SDS011;28397;44.552;-0.848;2022-12-07T14:56:20;9.43;;;8.52;;
42742;SDS011;28397;44.552;-0.848;2022-12-07T14:58:46;9.60;;;8.60;;
42742;SDS011;28397;44.552;-0.848;2022-12-07T15:01:13;10.13;;;8.65;;
42742;SDS011;28397;44.552;-0.848;2022-12-07T15:03:39;9.73;;;8.77;;
42742;SDS011;28397;44.552;-0.848;2022-12-07T15:06:05;10.48;;;9.10;;
42742;SDS011;28397;44.552;-0.848;2022-12-07T15:08:32;10.43;;;8.80;;
42742;SDS011;28397;44.552;-0.848;2022-12-07T15:10:58;9.63;;;8.70;;
42742;SDS011;28397;44.552;-0.848;2022-12-07T15:13:24;9.70;;;8.70;;
42742;SDS011;28397;44.552;-0.848;2022-12-07T15:16:09;9.50;;;8.60;;
42742;SDS011;28397;44.552;-0.848;2022-12-07T15:18:37;9.02;;;8.23;;
42742;SDS011;28397;44.552;-0.848;2022-12-07T15:21:03;10.10;;;9.10;;
42742;SDS011;28397;44.552;-0.848;2022-12-07T15:23:29;9.50;;;8.60;;
42742;SDS011;28397;44.552;-0.848;2022-12-07T15:25:56;9.23;;;8.32;;
42742;SDS011;28397;44.552;-0.848;2022-12-07T15:28:21;9.63;;;8.57;;
42742;SDS011;28397;44.552;-0.848;2022-12-07T15:30:47;12.98;;;8.68;;
42742;SDS011;28397;44.552;-0.848;2022-12-07T15:33:13;9.75;;;8.85;;
42742;SDS011;28397;44.552;-0.848;2022-12-07T15:35:42;10.27;;;9.25;;
42742;SDS011;28397;44.552;-0.848;2022-12-07T15:38:09;12.18;;;10.93;;
42742;SDS011;28397;44.552;-0.848;2022-12-07T15:40:35;9.85;;;8.57;;
42742;SDS011;28397;44.552;-0.848;2022-12-07T15:43:01;8.85;;;7.95;;
42742;SDS011;28397;44.552;-0.848;2022-12-07T15:45:27;9.10;;;8.20;;
42742;SDS011;28397;44.552;-0.848;2022-12-07T15:47:53;9.75;;;8.43;;
42742;SDS011;28397;44.552;-0.848;2022-12-07T15:50:20;8.85;;;7.95;;
42742;SDS011;28397;44.552;-0.848;2022-12-07T15:52:47;9.45;;;7.78;;
42742;SDS011;28397;44.552;-0.848;2022-12-07T15:55:13;8.73;;;7.93;;
42742;SDS011;28397;44.552;-0.848;2022-12-07T15:57:38;11.38;;;8.63;;
42742;SDS011;28397;44.552;-0.848;2022-12-07T16:00:05;9.25;;;8.35;;
42742;SDS011;28397;44.552;-0.848;2022-12-07T16:02:32;9.18;;;8.27;;
42742;SDS011;28397;44.552;-0.848;2022-12-07T16:04:57;9.60;;;8.60;;
42742;SDS011;28397;44.552;-0.848;2022-12-07T16:07:23;9.43;;;8.50;;
42742;SDS011;28397;44.552;-0.848;2022-12-07T16:09:49;9.75;;;8.73;;
42742;SDS011;28397;44.552;-0.848;2022-12-07T16:12:15;9.77;;;8.82;;
42742;SDS011;28397;44.552;-0.848;2022-12-07T16:14:41;9.60;;;8.70;;
42742;SDS011;28397;44.552;-0.848;2022-12-07T16:17:08;9.75;;;8.85;;
42742;SDS011;28397;44.552;-0.848;2022-12-07T16:19:34;9.80;;;8.90;;
42742;SDS011;28397;44.552;-0.848;2022-12-07T16:22:00;12.25;;;8.73;;
42742;SDS011;28397;44.552;-0.848;2022-12-07T16:24:27;10.40;;;9.38;;
42742;SDS011;28397;44.552;-0.848;2022-12-07T16:26:53;10.75;;;9.65;;
42742;SDS011;28397;44.552;-0.848;2022-12-07T16:29:20;10.85;;;9.60;;
42742;SDS011;28397;44.552;-0.848;2022-12-07T16:31:47;11.32;;;9.88;;
42742;SDS011;28397;44.552;-0.848;2022-12-07T16:34:13;11.00;;;9.93;;
42742;SDS011;28397;44.552;-0.848;2022-12-07T16:36:39;10.82;;;9.82;;
42742;SDS011;28397;44.552;-0.848;2022-12-07T16:39:05;11.45;;;9.75;;
42742;SDS011;28397;44.552;-0.848;2022-12-07T16:41:31;10.98;;;9.82;;
42742;SDS011;28397;44.552;-0.848;2022-12-07T16:43:57;11.18;;;9.77;;